sensor_id;sensor_type;location;lat;lon;timestamp;P1;durP1;ratioP1;P2;durP2;ratioP2
38557;SDS011;24333;42.626;23.308;2023-03-23T00:20:01;4.07;;;2.10;;
38557;SDS011;24333;42.626;23.308;2023-03-23T00:22:32;3.47;;;1.90;;
38557;SDS011;24333;42.626;23.308;2023-03-23T00:25:03;5.07;;;2.47;;
38557;SDS011;24333;42.626;23.308;2023-03-23T00:27:30;6.75;;;2.70;;
38557;SDS011;24333;42.626;23.308;2023-03-23T00:30:22;5.25;;;2.13;;
38557;SDS011;24333;42.626;23.308;2023-03-23T00:33:01;4.30;;;1.75;;
38557;SDS011;24333;42.626;23.308;2023-03-23T00:35:50;3.38;;;1.80;;
38557;SDS011;24333;42.626;23.308;2023-03-23T00:38:18;4.28;;;1.85;;
38557;SDS011;24333;42.626;23.308;2023-03-23T00:40:48;6.40;;;2.10;;
38557;SDS011;24333;42.626;23.308;2023-03-23T00:43:36;13.68;;;2.88;;
38557;SDS011;24333;42.626;23.308;2023-03-23T00:46:02;9.85;;;2.90;;
38557;SDS011;24333;42.626;23.308;2023-03-23T01:10:01;4.93;;;3.03;;
38557;SDS011;24333;42.626;23.308;2023-03-23T01:12:27;9.20;;;3.88;;
38557;SDS011;24333;42.626;23.308;2023-03-23T01:15:26;9.20;;;3.60;;
38557;SDS011;24333;42.626;23.308;2023-03-23T03:48:35;8.65;;;4.38;;
38557;SDS011;24333;42.626;23.308;2023-03-23T03:51:01;8.75;;;4.30;;
38557;SDS011;24333;42.626;23.308;2023-03-23T03:53:27;10.30;;;4.22;;
38557;SDS011;24333;42.626;23.308;2023-03-23T03:55:53;8.65;;;4.50;;
38557;SDS011;24333;42.626;23.308;2023-03-23T03:58:25;10.35;;;4.43;;
38557;SDS011;24333;42.626;23.308;2023-03-23T04:00:59;10.75;;;5.30;;
38557;SDS011;24333;42.626;23.308;2023-03-23T06:46:48;44.10;;;18.50;;
38557;SDS011;24333;42.626;23.308;2023-03-23T06:49:14;40.97;;;17.20;;
38557;SDS011;24333;42.626;23.308;2023-03-23T06:51:40;37.38;;;16.23;;
38557;SDS011;24333;42.626;23.308;2023-03-23T06:54:06;38.92;;;15.27;;
38557;SDS011;24333;42.626;23.308;2023-03-23T06:56:32;43.78;;;16.52;;
38557;SDS011;24333;42.626;23.308;2023-03-23T06:59:07;47.35;;;17.83;;
38557;SDS011;24333;42.626;23.308;2023-03-23T07:09:26;57.97;;;18.92;;
38557;SDS011;24333;42.626;23.308;2023-03-23T07:12:07;51.05;;;19.48;;
38557;SDS011;24333;42.626;23.308;2023-03-23T07:14:33;47.78;;;20.25;;
38557;SDS011;24333;42.626;23.308;2023-03-23T07:16:59;48.40;;;18.13;;
38557;SDS011;24333;42.626;23.308;2023-03-23T07:22:25;44.08;;;17.70;;
38557;SDS011;24333;42.626;23.308;2023-03-23T07:24:52;47.22;;;18.67;;
38557;SDS011;24333;42.626;23.308;2023-03-23T07:27:17;51.08;;;18.00;;
38557;SDS011;24333;42.626;23.308;2023-03-23T11:14:29;9.93;;;5.15;;
38557;SDS011;24333;42.626;23.308;2023-03-23T11:17:01;12.77;;;5.53;;
38557;SDS011;24333;42.626;23.308;2023-03-23T11:19:30;12.02;;;6.05;;
38557;SDS011;24333;42.626;23.308;2023-03-23T11:22:07;11.25;;;5.20;;
38557;SDS011;24333;42.626;23.308;2023-03-23T11:25:05;12.27;;;4.95;;
38557;SDS011;24333;42.626;23.308;2023-03-23T11:31:11;12.23;;;4.97;;
38557;SDS011;24333;42.626;23.308;2023-03-23T11:36:33;14.27;;;5.40;;
38557;SDS011;24333;42.626;23.308;2023-03-23T11:39:01;10.50;;;5.65;;
38557;SDS011;24333;42.626;23.308;2023-03-23T12:07:56;10.05;;;5.13;;
38557;SDS011;24333;42.626;23.308;2023-03-23T12:19:40;10.75;;;4.65;;
38557;SDS011;24333;42.626;23.308;2023-03-23T12:22:22;10.50;;;4.50;;
38557;SDS011;24333;42.626;23.308;2023-03-23T12:37:12;14.60;;;5.72;;
38557;SDS011;24333;42.626;23.308;2023-03-23T12:43:03;8.18;;;4.07;;
38557;SDS011;24333;42.626;23.308;2023-03-23T12:49:01;8.82;;;3.53;;
38557;SDS011;24333;42.626;23.308;2023-03-23T12:57:14;7.72;;;4.28;;
38557;SDS011;24333;42.626;23.308;2023-03-23T13:02:39;8.88;;;4.70;;
38557;SDS011;24333;42.626;23.308;2023-03-23T13:08:09;8.80;;;4.63;;
38557;SDS011;24333;42.626;23.308;2023-03-23T13:34:43;8.15;;;3.88;;
38557;SDS011;24333;42.626;23.308;2023-03-23T16:59:34;10.98;;;4.72;;
38557;SDS011;24333;42.626;23.308;2023-03-23T17:02:00;9.77;;;4.82;;
38557;SDS011;24333;42.626;23.308;2023-03-23T17:04:31;8.80;;;4.28;;
38557;SDS011;24333;42.626;23.308;2023-03-23T17:06:57;10.48;;;3.53;;
38557;SDS011;24333;42.626;23.308;2023-03-23T17:09:24;6.22;;;3.10;;
38557;SDS011;24333;42.626;23.308;2023-03-23T17:11:50;7.15;;;2.80;;
38557;SDS011;24333;42.626;23.308;2023-03-23T17:14:16;7.05;;;3.15;;
38557;SDS011;24333;42.626;23.308;2023-03-23T17:16:42;6.25;;;3.13;;
38557;SDS011;24333;42.626;23.308;2023-03-23T17:19:07;5.95;;;2.88;;
38557;SDS011;24333;42.626;23.308;2023-03-23T17:21:33;5.85;;;2.42;;
38557;SDS011;24333;42.626;23.308;2023-03-23T17:23:58;5.20;;;2.42;;
38557;SDS011;24333;42.626;23.308;2023-03-23T17:26:23;7.07;;;2.85;;
38557;SDS011;24333;42.626;23.308;2023-03-23T17:34:49;19.35;;;5.65;;
38557;SDS011;24333;42.626;23.308;2023-03-23T17:37:15;24.90;;;7.82;;
38557;SDS011;24333;42.626;23.308;2023-03-23T17:39:41;14.95;;;5.30;;
38557;SDS011;24333;42.626;23.308;2023-03-23T17:42:07;10.48;;;5.28;;
38557;SDS011;24333;42.626;23.308;2023-03-23T17:44:33;10.50;;;4.22;;
38557;SDS011;24333;42.626;23.308;2023-03-23T17:46:59;17.33;;;5.82;;
38557;SDS011;24333;42.626;23.308;2023-03-23T19:19:29;79.28;;;26.23;;
38557;SDS011;24333;42.626;23.308;2023-03-23T19:22:02;20.10;;;10.95;;
38557;SDS011;24333;42.626;23.308;2023-03-23T19:24:33;15.07;;;9.50;;
38557;SDS011;24333;42.626;23.308;2023-03-23T19:26:59;13.77;;;8.27;;
38557;SDS011;24333;42.626;23.308;2023-03-23T19:32:16;5.30;;;2.65;;
38557;SDS011;24333;42.626;23.308;2023-03-23T19:34:51;4.68;;;2.60;;
38557;SDS011;24333;42.626;23.308;2023-03-23T19:44:21;9.15;;;3.83;;
38557;SDS011;24333;42.626;23.308;2023-03-23T19:46:49;12.40;;;4.57;;
38557;SDS011;24333;42.626;23.308;2023-03-23T19:49:15;11.30;;;5.47;;
38557;SDS011;24333;42.626;23.308;2023-03-23T19:51:42;5.50;;;3.10;;
38557;SDS011;24333;42.626;23.308;2023-03-23T19:54:08;6.57;;;3.20;;
38557;SDS011;24333;42.626;23.308;2023-03-23T19:56:40;4.75;;;2.50;;
38557;SDS011;24333;42.626;23.308;2023-03-23T19:59:33;5.50;;;2.90;;
38557;SDS011;24333;42.626;23.308;2023-03-23T20:01:59;8.85;;;3.30;;
38557;SDS011;24333;42.626;23.308;2023-03-23T20:04:26;16.77;;;6.05;;
38557;SDS011;24333;42.626;23.308;2023-03-23T22:21:47;9.80;;;3.13;;
38557;SDS011;24333;42.626;23.308;2023-03-23T22:24:12;7.13;;;3.15;;
38557;SDS011;24333;42.626;23.308;2023-03-23T22:26:38;8.15;;;3.60;;
38557;SDS011;24333;42.626;23.308;2023-03-23T22:29:04;5.25;;;2.90;;
38557;SDS011;24333;42.626;23.308;2023-03-23T22:31:31;13.95;;;3.92;;
38557;SDS011;24333;42.626;23.308;2023-03-23T22:33:59;4.43;;;2.70;;
38557;SDS011;24333;42.626;23.308;2023-03-23T22:36:26;9.38;;;4.18;;
38557;SDS011;24333;42.626;23.308;2023-03-23T22:38:53;6.22;;;2.85;;
38557;SDS011;24333;42.626;23.308;2023-03-23T22:41:24;6.72;;;3.22;;
38557;SDS011;24333;42.626;23.308;2023-03-23T22:43:52;6.78;;;3.53;;
38557;SDS011;24333;42.626;23.308;2023-03-23T22:46:18;5.85;;;2.90;;
38557;SDS011;24333;42.626;23.308;2023-03-23T22:48:44;6.55;;;3.42;;
38557;SDS011;24333;42.626;23.308;2023-03-23T22:57:04;6.93;;;3.63;;
38557;SDS011;24333;42.626;23.308;2023-03-23T22:59:30;6.65;;;3.30;;
38557;SDS011;24333;42.626;23.308;2023-03-23T23:01:55;9.07;;;3.17;;
38557;SDS011;24333;42.626;23.308;2023-03-23T23:04:21;6.47;;;3.70;;
38557;SDS011;24333;42.626;23.308;2023-03-23T23:06:46;7.43;;;3.58;;
38557;SDS011;24333;42.626;23.308;2023-03-23T23:09:12;8.65;;;4.13;;
38557;SDS011;24333;42.626;23.308;2023-03-23T23:11:39;12.25;;;3.63;;
38557;SDS011;24333;42.626;23.308;2023-03-23T23:14:04;10.82;;;3.90;;
38557;SDS011;24333;42.626;23.308;2023-03-23T23:16:30;9.88;;;3.55;;
38557;SDS011;24333;42.626;23.308;2023-03-23T23:18:56;7.15;;;3.30;;
38557;SDS011;24333;42.626;23.308;2023-03-23T23:21:30;8.55;;;3.92;;
38557;SDS011;24333;42.626;23.308;2023-03-23T23:24:08;7.68;;;4.22;;
38557;SDS011;24333;42.626;23.308;2023-03-23T23:26:33;9.57;;;4.00;;
38557;SDS011;24333;42.626;23.308;2023-03-23T23:29:00;7.40;;;4.13;;
38557;SDS011;24333;42.626;23.308;2023-03-23T23:31:28;13.00;;;4.35;;
38557;SDS011;24333;42.626;23.308;2023-03-23T23:33:57;7.88;;;4.13;;
38557;SDS011;24333;42.626;23.308;2023-03-23T23:36:24;10.38;;;3.80;;
